Aeroporto :
LOGIN :

Iscrizione | Disclaimer

   EN    FR    IT 

 










Sommario :    VFR   VFR Marginale   IFR   IFR Intensivo   IFR Molto Intensivo
Visibilità : 
Base nubi : 
>= 8 km
>= 3000ft
5 / 8 km
1000 / 3000 ft
1500m / 5 km
500 / 1000 ft
800 / 1500m
200 / 500 ft
< 800m
< 200 ft
Simboli :   Temporali  Nebbia  Neve Forte  Precipitazioni Forti  Vento > 20 kt
SIGMETs :   Varie  Temporali  Ghiacco  Turbolenza  Onda orograficha  Ceneri Vulcaniche







- Altitudine del aeroporto : 278 ft
- Codice IATA : RJK


LDRI - Rijeka

ULTIMO METAR :
  • 170930Z 02007KT 320V110 CAVOK 27/14 Q1016

METARs OBSOLETI :
  • 170900Z VRB04KT CAVOK 26/13 Q1016
  • 170830Z 02007KT 270V080 CAVOK 26/14 Q1016
  • 170800Z 36005KT 300V060 CAVOK 25/13 Q1016
  • 170730Z VRB04KT CAVOK 25/14 Q1016
  • 170700Z 12004KT 070V210 CAVOK 25/13 Q1016

TAF TAF LDRI
Valido dal 17 a 06 ore il 18 a 06 ore UTC


170525Z 1706/1806 06010KT CAVOK TX27/1714Z TN22/1804Z
TEMPO 1706/1716 06018G32KT
PROB40
TEMPO 1706/1800 VRB10KT
PROB30
TEMPO 1716/1800 06015G25KT
BECMG 1717/1719 04005KT
Nessun NOTAM noto per questo aeroporto.



MetMap, La meteo Aeronautica in un colpo d'occhio ! - Copyright ORBIFLY Dicembre 2007 - Disclaimer

ORBIFLY MET'MAP TEAM :

Programmazione e sviluppo : Alexandra Zaïnal
Concezione e sviluppo : Baudouin d'Aumeries
Co-Programmazione e sviluppo : Marc-Olivier Méhu
Supporto tecnico e logistico : Manuel Goepfert
Aiuto per la traduzione : Arnaldo La Scala

Contatto : metmap@orbifly.com




FONTI E CREDITI :

   NOAA